sensor_id;sensor_type;location;lat;lon;timestamp;temperature;humidity
8856;DHT22;4464;50.882;4.730;2023-04-07T00:00:21;8.90;99.90
8856;DHT22;4464;50.882;4.730;2023-04-07T00:02:48;8.90;99.90
8856;DHT22;4464;50.882;4.730;2023-04-07T00:05:16;8.90;99.90
8856;DHT22;4464;50.882;4.730;2023-04-07T00:07:42;8.90;99.90
8856;DHT22;4464;50.882;4.730;2023-04-07T00:10:10;8.90;99.90
8856;DHT22;4464;50.882;4.730;2023-04-07T00:12:40;8.90;99.90
8856;DHT22;4464;50.882;4.730;2023-04-07T00:15:09;8.90;99.90
8856;DHT22;4464;50.882;4.730;2023-04-07T00:17:36;8.90;99.90
8856;DHT22;4464;50.882;4.730;2023-04-07T00:20:05;8.80;99.90
8856;DHT22;4464;50.882;4.730;2023-04-07T00:22:31;8.80;99.90
8856;DHT22;4464;50.882;4.730;2023-04-07T00:24:57;8.80;99.90
8856;DHT22;4464;50.882;4.730;2023-04-07T00:27:22;8.80;99.90
8856;DHT22;4464;50.882;4.730;2023-04-07T00:29:50;8.80;99.90
8856;DHT22;4464;50.882;4.730;2023-04-07T00:32:22;8.80;99.90
8856;DHT22;4464;50.882;4.730;2023-04-07T00:34:48;8.80;99.90
8856;DHT22;4464;50.882;4.730;2023-04-07T00:37:15;8.80;99.90
8856;DHT22;4464;50.882;4.730;2023-04-07T00:39:44;8.70;99.90
8856;DHT22;4464;50.882;4.730;2023-04-07T00:42:09;8.70;99.90
8856;DHT22;4464;50.882;4.730;2023-04-07T00:44:36;8.80;99.90
8856;DHT22;4464;50.882;4.730;2023-04-07T00:47:01;8.80;99.90
8856;DHT22;4464;50.882;4.730;2023-04-07T00:49:27;8.80;99.90
8856;DHT22;4464;50.882;4.730;2023-04-07T00:51:54;8.80;99.90
8856;DHT22;4464;50.882;4.730;2023-04-07T00:54:22;8.80;99.90
8856;DHT22;4464;50.882;4.730;2023-04-07T00:56:48;8.80;99.90
8856;DHT22;4464;50.882;4.730;2023-04-07T00:59:16;8.80;99.90
8856;DHT22;4464;50.882;4.730;2023-04-07T01:04:32;8.70;99.90
8856;DHT22;4464;50.882;4.730;2023-04-07T01:07:10;8.70;99.90
8856;DHT22;4464;50.882;4.730;2023-04-07T01:10:04;8.70;99.90
8856;DHT22;4464;50.882;4.730;2023-04-07T01:12:51;8.70;99.90
8856;DHT22;4464;50.882;4.730;2023-04-07T01:15:23;8.80;99.90
8856;DHT22;4464;50.882;4.730;2023-04-07T01:18:00;8.70;99.90
8856;DHT22;4464;50.882;4.730;2023-04-07T01:20:36;8.80;99.90
8856;DHT22;4464;50.882;4.730;2023-04-07T01:23:06;8.80;99.90
8856;DHT22;4464;50.882;4.730;2023-04-07T01:30:46;8.60;99.90
8856;DHT22;4464;50.882;4.730;2023-04-07T01:33:13;8.60;99.90
8856;DHT22;4464;50.882;4.730;2023-04-07T01:35:40;8.60;99.90
8856;DHT22;4464;50.882;4.730;2023-04-07T01:38:13;8.60;99.90
8856;DHT22;4464;50.882;4.730;2023-04-07T01:40:42;8.60;99.90
8856;DHT22;4464;50.882;4.730;2023-04-07T01:43:09;8.60;99.90
8856;DHT22;4464;50.882;4.730;2023-04-07T01:45:36;8.60;99.90
8856;DHT22;4464;50.882;4.730;2023-04-07T01:48:05;8.60;99.90
8856;DHT22;4464;50.882;4.730;2023-04-07T01:50:32;8.50;99.90
8856;DHT22;4464;50.882;4.730;2023-04-07T01:52:58;8.50;99.90
8856;DHT22;4464;50.882;4.730;2023-04-07T01:55:25;8.50;99.90
8856;DHT22;4464;50.882;4.730;2023-04-07T01:57:52;8.50;99.90
8856;DHT22;4464;50.882;4.730;2023-04-07T02:00:18;8.40;99.90
8856;DHT22;4464;50.882;4.730;2023-04-07T02:02:44;8.40;99.90
8856;DHT22;4464;50.882;4.730;2023-04-07T02:05:14;8.40;99.90
8856;DHT22;4464;50.882;4.730;2023-04-07T02:07:49;8.30;99.90
8856;DHT22;4464;50.882;4.730;2023-04-07T02:10:23;8.30;99.90
8856;DHT22;4464;50.882;4.730;2023-04-07T02:12:53;8.20;99.90
8856;DHT22;4464;50.882;4.730;2023-04-07T02:15:21;8.20;99.90
8856;DHT22;4464;50.882;4.730;2023-04-07T02:17:52;8.20;99.90
8856;DHT22;4464;50.882;4.730;2023-04-07T02:20:19;8.10;99.90
8856;DHT22;4464;50.882;4.730;2023-04-07T02:22:45;8.10;99.90
8856;DHT22;4464;50.882;4.730;2023-04-07T02:25:31;8.10;99.90
8856;DHT22;4464;50.882;4.730;2023-04-07T02:27:59;8.10;99.90
8856;DHT22;4464;50.882;4.730;2023-04-07T02:30:26;8.10;99.90
8856;DHT22;4464;50.882;4.730;2023-04-07T02:32:52;8.10;99.90
8856;DHT22;4464;50.882;4.730;2023-04-07T02:35:18;8.10;99.90
8856;DHT22;4464;50.882;4.730;2023-04-07T02:37:45;8.10;99.90
8856;DHT22;4464;50.882;4.730;2023-04-07T02:40:16;8.10;99.90
8856;DHT22;4464;50.882;4.730;2023-04-07T02:42:45;8.00;99.90
8856;DHT22;4464;50.882;4.730;2023-04-07T02:45:11;8.00;99.90
8856;DHT22;4464;50.882;4.730;2023-04-07T02:47:37;7.90;99.90
8856;DHT22;4464;50.882;4.730;2023-04-07T02:50:06;7.90;99.90
8856;DHT22;4464;50.882;4.730;2023-04-07T02:52:34;7.90;99.90
8856;DHT22;4464;50.882;4.730;2023-04-07T02:55:02;7.80;99.90
8856;DHT22;4464;50.882;4.730;2023-04-07T02:57:30;7.80;99.90
8856;DHT22;4464;50.882;4.730;2023-04-07T03:00:01;7.80;99.90
8856;DHT22;4464;50.882;4.730;2023-04-07T03:02:27;7.80;99.90
8856;DHT22;4464;50.882;4.730;2023-04-07T03:04:52;7.70;99.90
8856;DHT22;4464;50.882;4.730;2023-04-07T03:07:18;7.70;99.90
8856;DHT22;4464;50.882;4.730;2023-04-07T03:09:44;7.70;99.90
8856;DHT22;4464;50.882;4.730;2023-04-07T03:12:10;7.60;99.90
8856;DHT22;4464;50.882;4.730;2023-04-07T03:14:38;7.60;99.90
8856;DHT22;4464;50.882;4.730;2023-04-07T03:17:04;7.60;99.90
8856;DHT22;4464;50.882;4.730;2023-04-07T03:19:29;7.60;99.90
8856;DHT22;4464;50.882;4.730;2023-04-07T03:21:55;7.60;99.90
8856;DHT22;4464;50.882;4.730;2023-04-07T03:24:21;7.60;99.90
8856;DHT22;4464;50.882;4.730;2023-04-07T03:26:46;7.50;99.90
8856;DHT22;4464;50.882;4.730;2023-04-07T03:29:12;7.60;99.90
8856;DHT22;4464;50.882;4.730;2023-04-07T03:31:38;7.50;99.90
8856;DHT22;4464;50.882;4.730;2023-04-07T03:34:04;7.60;99.90
8856;DHT22;4464;50.882;4.730;2023-04-07T03:36:30;7.60;99.90
8856;DHT22;4464;50.882;4.730;2023-04-07T03:38:58;7.50;99.90
8856;DHT22;4464;50.882;4.730;2023-04-07T03:41:24;7.50;99.90
8856;DHT22;4464;50.882;4.730;2023-04-07T03:43:50;7.50;99.90
8856;DHT22;4464;50.882;4.730;2023-04-07T03:46:21;7.60;99.90
8856;DHT22;4464;50.882;4.730;2023-04-07T03:48:46;7.60;99.90
8856;DHT22;4464;50.882;4.730;2023-04-07T03:51:12;7.60;99.90
8856;DHT22;4464;50.882;4.730;2023-04-07T03:53:38;7.60;99.90
8856;DHT22;4464;50.882;4.730;2023-04-07T03:56:04;7.60;99.90
8856;DHT22;4464;50.882;4.730;2023-04-07T03:58:30;7.60;99.90
8856;DHT22;4464;50.882;4.730;2023-04-07T04:00:55;7.60;99.90
8856;DHT22;4464;50.882;4.730;2023-04-07T04:03:21;7.60;99.90
8856;DHT22;4464;50.882;4.730;2023-04-07T04:05:47;7.60;99.90
8856;DHT22;4464;50.882;4.730;2023-04-07T04:08:12;7.60;99.90
8856;DHT22;4464;50.882;4.730;2023-04-07T04:10:38;7.60;99.90
8856;DHT22;4464;50.882;4.730;2023-04-07T04:13:04;7.60;99.90
8856;DHT22;4464;50.882;4.730;2023-04-07T04:15:32;7.70;99.90
8856;DHT22;4464;50.882;4.730;2023-04-07T04:17:58;7.70;99.90
8856;DHT22;4464;50.882;4.730;2023-04-07T04:20:25;7.70;99.90
8856;DHT22;4464;50.882;4.730;2023-04-07T04:22:51;7.70;99.90
8856;DHT22;4464;50.882;4.730;2023-04-07T04:25:17;7.80;99.90
8856;DHT22;4464;50.882;4.730;2023-04-07T04:27:45;7.80;99.90
8856;DHT22;4464;50.882;4.730;2023-04-07T04:30:11;7.70;99.90
8856;DHT22;4464;50.882;4.730;2023-04-07T04:32:36;7.80;99.90
8856;DHT22;4464;50.882;4.730;2023-04-07T04:35:02;7.80;99.90
8856;DHT22;4464;50.882;4.730;2023-04-07T04:37:28;7.80;99.90
8856;DHT22;4464;50.882;4.730;2023-04-07T04:39:56;7.80;99.90
8856;DHT22;4464;50.882;4.730;2023-04-07T04:42:22;7.70;99.90
8856;DHT22;4464;50.882;4.730;2023-04-07T04:44:48;7.70;99.90
8856;DHT22;4464;50.882;4.730;2023-04-07T04:47:13;7.80;99.90
8856;DHT22;4464;50.882;4.730;2023-04-07T04:49:40;7.70;99.90
8856;DHT22;4464;50.882;4.730;2023-04-07T04:52:08;7.80;99.90
8856;DHT22;4464;50.882;4.730;2023-04-07T04:54:33;7.70;99.90
8856;DHT22;4464;50.882;4.730;2023-04-07T04:57:02;7.80;99.90
8856;DHT22;4464;50.882;4.730;2023-04-07T04:59:27;7.70;99.90
8856;DHT22;4464;50.882;4.730;2023-04-07T05:01:53;7.70;99.90
8856;DHT22;4464;50.882;4.730;2023-04-07T05:04:19;7.70;99.90
8856;DHT22;4464;50.882;4.730;2023-04-07T05:06:49;7.70;99.90
8856;DHT22;4464;50.882;4.730;2023-04-07T05:09:17;7.70;99.90
8856;DHT22;4464;50.882;4.730;2023-04-07T05:11:43;7.60;99.90
8856;DHT22;4464;50.882;4.730;2023-04-07T05:14:09;7.60;99.90
8856;DHT22;4464;50.882;4.730;2023-04-07T05:16:37;7.60;99.90
8856;DHT22;4464;50.882;4.730;2023-04-07T05:19:02;7.60;99.90
8856;DHT22;4464;50.882;4.730;2023-04-07T05:21:28;7.60;99.90
8856;DHT22;4464;50.882;4.730;2023-04-07T05:23:57;7.60;99.90
8856;DHT22;4464;50.882;4.730;2023-04-07T05:26:25;7.70;99.90
8856;DHT22;4464;50.882;4.730;2023-04-07T05:28:51;7.70;99.90
8856;DHT22;4464;50.882;4.730;2023-04-07T05:31:17;7.60;99.90
8856;DHT22;4464;50.882;4.730;2023-04-07T05:33:42;7.70;99.90
8856;DHT22;4464;50.882;4.730;2023-04-07T05:36:08;7.60;99.90
8856;DHT22;4464;50.882;4.730;2023-04-07T05:38:34;7.60;99.90
8856;DHT22;4464;50.882;4.730;2023-04-07T05:40:59;7.60;99.90
8856;DHT22;4464;50.882;4.730;2023-04-07T05:43:25;7.60;99.90
8856;DHT22;4464;50.882;4.730;2023-04-07T05:45:51;7.60;99.90
8856;DHT22;4464;50.882;4.730;2023-04-07T05:48:17;7.60;99.90
8856;DHT22;4464;50.882;4.730;2023-04-07T05:50:42;7.70;99.90
8856;DHT22;4464;50.882;4.730;2023-04-07T05:53:08;7.80;99.90
8856;DHT22;4464;50.882;4.730;2023-04-07T05:55:36;7.80;99.90
8856;DHT22;4464;50.882;4.730;2023-04-07T05:58:01;7.70;99.90
8856;DHT22;4464;50.882;4.730;2023-04-07T06:00:30;7.70;99.90
8856;DHT22;4464;50.882;4.730;2023-04-07T06:02:56;7.80;99.90
8856;DHT22;4464;50.882;4.730;2023-04-07T06:05:22;7.80;99.90
8856;DHT22;4464;50.882;4.730;2023-04-07T06:07:50;7.80;99.90
8856;DHT22;4464;50.882;4.730;2023-04-07T06:10:15;7.80;99.90
8856;DHT22;4464;50.882;4.730;2023-04-07T06:12:41;7.80;99.90
8856;DHT22;4464;50.882;4.730;2023-04-07T06:15:07;7.80;99.90
8856;DHT22;4464;50.882;4.730;2023-04-07T06:17:35;7.90;99.90
8856;DHT22;4464;50.882;4.730;2023-04-07T06:20:03;8.00;99.90
8856;DHT22;4464;50.882;4.730;2023-04-07T06:22:29;8.10;99.90
8856;DHT22;4464;50.882;4.730;2023-04-07T06:24:55;8.10;99.90
8856;DHT22;4464;50.882;4.730;2023-04-07T06:27:20;8.20;99.90
8856;DHT22;4464;50.882;4.730;2023-04-07T06:29:48;8.20;99.90
8856;DHT22;4464;50.882;4.730;2023-04-07T06:32:14;8.20;99.90
8856;DHT22;4464;50.882;4.730;2023-04-07T06:34:42;8.20;99.90
8856;DHT22;4464;50.882;4.730;2023-04-07T06:37:08;8.20;99.90
8856;DHT22;4464;50.882;4.730;2023-04-07T06:39:34;8.30;99.90
8856;DHT22;4464;50.882;4.730;2023-04-07T06:42:02;8.30;99.90
8856;DHT22;4464;50.882;4.730;2023-04-07T06:44:30;8.40;99.90
8856;DHT22;4464;50.882;4.730;2023-04-07T06:46:55;8.50;99.90
8856;DHT22;4464;50.882;4.730;2023-04-07T06:49:21;8.60;99.90
8856;DHT22;4464;50.882;4.730;2023-04-07T06:51:49;8.60;99.90
8856;DHT22;4464;50.882;4.730;2023-04-07T06:54:15;8.60;99.90
8856;DHT22;4464;50.882;4.730;2023-04-07T06:56:43;8.80;99.90
8856;DHT22;4464;50.882;4.730;2023-04-07T06:59:09;8.70;99.90
8856;DHT22;4464;50.882;4.730;2023-04-07T07:01:35;8.70;99.90
8856;DHT22;4464;50.882;4.730;2023-04-07T07:04:02;8.80;99.90
8856;DHT22;4464;50.882;4.730;2023-04-07T07:06:30;8.80;99.90
8856;DHT22;4464;50.882;4.730;2023-04-07T07:08:59;8.90;99.90
8856;DHT22;4464;50.882;4.730;2023-04-07T07:11:25;8.90;99.90
8856;DHT22;4464;50.882;4.730;2023-04-07T07:13:51;8.90;99.90
8856;DHT22;4464;50.882;4.730;2023-04-07T07:16:17;9.00;99.90
8856;DHT22;4464;50.882;4.730;2023-04-07T07:18:42;9.30;99.90
8856;DHT22;4464;50.882;4.730;2023-04-07T07:21:08;9.20;99.90
8856;DHT22;4464;50.882;4.730;2023-04-07T07:23:36;9.00;99.90
8856;DHT22;4464;50.882;4.730;2023-04-07T07:26:09;9.00;99.90
8856;DHT22;4464;50.882;4.730;2023-04-07T07:28:39;9.10;99.90
8856;DHT22;4464;50.882;4.730;2023-04-07T07:31:10;9.10;99.90
8856;DHT22;4464;50.882;4.730;2023-04-07T07:33:38;9.00;99.90
8856;DHT22;4464;50.882;4.730;2023-04-07T07:36:05;9.10;99.90
8856;DHT22;4464;50.882;4.730;2023-04-07T07:38:31;9.30;99.90
8856;DHT22;4464;50.882;4.730;2023-04-07T07:40:56;9.60;99.90
8856;DHT22;4464;50.882;4.730;2023-04-07T07:43:24;9.90;99.90
8856;DHT22;4464;50.882;4.730;2023-04-07T07:45:53;10.00;99.90
8856;DHT22;4464;50.882;4.730;2023-04-07T07:48:18;10.20;99.90
8856;DHT22;4464;50.882;4.730;2023-04-07T07:50:44;10.30;99.90
8856;DHT22;4464;50.882;4.730;2023-04-07T07:53:11;10.00;99.90
8856;DHT22;4464;50.882;4.730;2023-04-07T07:55:37;9.80;99.90
8856;DHT22;4464;50.882;4.730;2023-04-07T07:58:02;9.60;99.90
8856;DHT22;4464;50.882;4.730;2023-04-07T08:00:28;9.50;99.90
8856;DHT22;4464;50.882;4.730;2023-04-07T08:02:56;9.60;99.90
8856;DHT22;4464;50.882;4.730;2023-04-07T08:05:22;9.70;99.90
8856;DHT22;4464;50.882;4.730;2023-04-07T08:07:48;10.00;99.90
8856;DHT22;4464;50.882;4.730;2023-04-07T08:10:14;10.20;99.90
8856;DHT22;4464;50.882;4.730;2023-04-07T08:12:42;10.20;99.90
8856;DHT22;4464;50.882;4.730;2023-04-07T08:15:10;10.10;99.90
8856;DHT22;4464;50.882;4.730;2023-04-07T08:17:40;10.00;99.90
8856;DHT22;4464;50.882;4.730;2023-04-07T08:20:07;10.30;99.90
8856;DHT22;4464;50.882;4.730;2023-04-07T08:22:35;10.40;99.90
8856;DHT22;4464;50.882;4.730;2023-04-07T08:25:01;10.60;99.90
8856;DHT22;4464;50.882;4.730;2023-04-07T08:27:27;10.60;99.90
8856;DHT22;4464;50.882;4.730;2023-04-07T08:30:00;10.50;99.90
8856;DHT22;4464;50.882;4.730;2023-04-07T08:32:56;10.20;99.90
8856;DHT22;4464;50.882;4.730;2023-04-07T08:35:21;10.10;99.90
8856;DHT22;4464;50.882;4.730;2023-04-07T08:37:47;10.20;99.90
8856;DHT22;4464;50.882;4.730;2023-04-07T08:40:14;10.20;99.90
8856;DHT22;4464;50.882;4.730;2023-04-07T08:42:42;10.20;99.90
8856;DHT22;4464;50.882;4.730;2023-04-07T08:45:08;10.80;99.90
8856;DHT22;4464;50.882;4.730;2023-04-07T08:47:35;11.00;99.90
8856;DHT22;4464;50.882;4.730;2023-04-07T08:50:05;10.80;99.90
8856;DHT22;4464;50.882;4.730;2023-04-07T08:52:43;10.50;99.90
8856;DHT22;4464;50.882;4.730;2023-04-07T08:55:09;10.40;99.90
8856;DHT22;4464;50.882;4.730;2023-04-07T08:57:35;10.40;99.90
8856;DHT22;4464;50.882;4.730;2023-04-07T09:00:07;10.30;99.90
8856;DHT22;4464;50.882;4.730;2023-04-07T09:02:43;10.40;99.90
8856;DHT22;4464;50.882;4.730;2023-04-07T09:05:10;10.30;99.90
8856;DHT22;4464;50.882;4.730;2023-04-07T09:07:38;10.50;99.90
8856;DHT22;4464;50.882;4.730;2023-04-07T09:10:05;10.60;99.90
8856;DHT22;4464;50.882;4.730;2023-04-07T09:12:34;10.80;99.90
8856;DHT22;4464;50.882;4.730;2023-04-07T09:15:00;10.70;99.90
8856;DHT22;4464;50.882;4.730;2023-04-07T09:17:27;10.90;99.90
8856;DHT22;4464;50.882;4.730;2023-04-07T09:19:57;11.00;99.90
8856;DHT22;4464;50.882;4.730;2023-04-07T09:22:45;11.20;99.90
8856;DHT22;4464;50.882;4.730;2023-04-07T09:25:15;11.10;99.90
8856;DHT22;4464;50.882;4.730;2023-04-07T09:28:00;11.20;99.90
8856;DHT22;4464;50.882;4.730;2023-04-07T09:30:27;11.20;99.90
8856;DHT22;4464;50.882;4.730;2023-04-07T09:32:54;11.20;99.90
8856;DHT22;4464;50.882;4.730;2023-04-07T09:35:20;11.30;99.90
8856;DHT22;4464;50.882;4.730;2023-04-07T09:38:20;11.40;99.90
8856;DHT22;4464;50.882;4.730;2023-04-07T09:40:49;11.00;99.90
8856;DHT22;4464;50.882;4.730;2023-04-07T09:43:18;10.90;99.90
8856;DHT22;4464;50.882;4.730;2023-04-07T09:45:43;10.90;99.90
8856;DHT22;4464;50.882;4.730;2023-04-07T09:48:18;10.90;99.90
8856;DHT22;4464;50.882;4.730;2023-04-07T09:50:49;11.20;99.90
8856;DHT22;4464;50.882;4.730;2023-04-07T09:53:16;11.40;99.90
8856;DHT22;4464;50.882;4.730;2023-04-07T09:55:44;11.50;99.90
8856;DHT22;4464;50.882;4.730;2023-04-07T09:58:14;11.80;99.90
8856;DHT22;4464;50.882;4.730;2023-04-07T10:00:41;12.20;99.90
8856;DHT22;4464;50.882;4.730;2023-04-07T10:03:09;12.00;99.90
8856;DHT22;4464;50.882;4.730;2023-04-07T10:05:35;11.70;99.90
8856;DHT22;4464;50.882;4.730;2023-04-07T10:08:03;11.60;99.90
8856;DHT22;4464;50.882;4.730;2023-04-07T10:10:34;12.00;99.90
8856;DHT22;4464;50.882;4.730;2023-04-07T10:13:03;12.60;99.90
8856;DHT22;4464;50.882;4.730;2023-04-07T10:15:29;13.60;99.90
8856;DHT22;4464;50.882;4.730;2023-04-07T10:18:02;13.30;99.90
8856;DHT22;4464;50.882;4.730;2023-04-07T10:20:29;13.00;99.90
8856;DHT22;4464;50.882;4.730;2023-04-07T10:23:00;13.10;99.90
8856;DHT22;4464;50.882;4.730;2023-04-07T10:25:30;12.60;99.90
8856;DHT22;4464;50.882;4.730;2023-04-07T10:28:03;12.20;99.90
8856;DHT22;4464;50.882;4.730;2023-04-07T10:30:32;12.00;99.90
8856;DHT22;4464;50.882;4.730;2023-04-07T10:32:58;11.80;99.90
8856;DHT22;4464;50.882;4.730;2023-04-07T10:35:27;11.80;99.90
8856;DHT22;4464;50.882;4.730;2023-04-07T10:38:13;11.50;99.90
8856;DHT22;4464;50.882;4.730;2023-04-07T10:40:41;11.50;99.90
8856;DHT22;4464;50.882;4.730;2023-04-07T10:43:08;11.50;99.90
8856;DHT22;4464;50.882;4.730;2023-04-07T10:48:11;11.60;99.90
8856;DHT22;4464;50.882;4.730;2023-04-07T10:50:37;11.60;99.90
8856;DHT22;4464;50.882;4.730;2023-04-07T10:53:11;11.50;99.90
8856;DHT22;4464;50.882;4.730;2023-04-07T10:55:38;11.50;99.90
8856;DHT22;4464;50.882;4.730;2023-04-07T10:58:25;11.40;99.90
8856;DHT22;4464;50.882;4.730;2023-04-07T11:03:28;11.80;99.90
8856;DHT22;4464;50.882;4.730;2023-04-07T11:08:33;11.80;99.90
8856;DHT22;4464;50.882;4.730;2023-04-07T11:10:59;11.50;99.90
8856;DHT22;4464;50.882;4.730;2023-04-07T11:13:28;11.30;99.90
8856;DHT22;4464;50.882;4.730;2023-04-07T11:15:56;11.20;99.90
8856;DHT22;4464;50.882;4.730;2023-04-07T11:18:23;11.10;99.90
8856;DHT22;4464;50.882;4.730;2023-04-07T11:20:54;11.10;99.90
8856;DHT22;4464;50.882;4.730;2023-04-07T11:23:22;11.10;99.90
8856;DHT22;4464;50.882;4.730;2023-04-07T11:25:51;11.10;99.90
8856;DHT22;4464;50.882;4.730;2023-04-07T11:28:17;11.20;99.90
8856;DHT22;4464;50.882;4.730;2023-04-07T11:30:45;11.40;99.90
8856;DHT22;4464;50.882;4.730;2023-04-07T11:33:15;11.60;99.90
8856;DHT22;4464;50.882;4.730;2023-04-07T11:38:13;11.90;99.90
8856;DHT22;4464;50.882;4.730;2023-04-07T11:40:43;11.90;99.90
8856;DHT22;4464;50.882;4.730;2023-04-07T11:43:19;12.10;99.90
8856;DHT22;4464;50.882;4.730;2023-04-07T11:45:45;12.30;99.90
8856;DHT22;4464;50.882;4.730;2023-04-07T11:48:30;12.40;99.90
8856;DHT22;4464;50.882;4.730;2023-04-07T11:50:56;12.30;99.90
8856;DHT22;4464;50.882;4.730;2023-04-07T11:53:35;12.30;99.90
8856;DHT22;4464;50.882;4.730;2023-04-07T11:56:14;11.90;99.90
8856;DHT22;4464;50.882;4.730;2023-04-07T11:58:51;11.80;99.90
8856;DHT22;4464;50.882;4.730;2023-04-07T12:01:16;11.80;99.90
8856;DHT22;4464;50.882;4.730;2023-04-07T12:03:55;11.80;99.90
8856;DHT22;4464;50.882;4.730;2023-04-07T12:06:33;11.80;99.90
8856;DHT22;4464;50.882;4.730;2023-04-07T12:09:05;11.90;99.90
8856;DHT22;4464;50.882;4.730;2023-04-07T12:11:34;11.90;99.90
8856;DHT22;4464;50.882;4.730;2023-04-07T12:14:01;11.90;99.90
8856;DHT22;4464;50.882;4.730;2023-04-07T12:16:37;12.10;99.90
8856;DHT22;4464;50.882;4.730;2023-04-07T12:19:03;12.30;99.90
8856;DHT22;4464;50.882;4.730;2023-04-07T12:21:33;12.10;99.90
8856;DHT22;4464;50.882;4.730;2023-04-07T12:23:59;11.80;99.90
8856;DHT22;4464;50.882;4.730;2023-04-07T12:26:24;11.70;99.90
8856;DHT22;4464;50.882;4.730;2023-04-07T12:28:50;11.50;99.90
8856;DHT22;4464;50.882;4.730;2023-04-07T12:31:16;11.50;99.90
8856;DHT22;4464;50.882;4.730;2023-04-07T12:33:42;11.40;99.90
8856;DHT22;4464;50.882;4.730;2023-04-07T12:36:09;11.20;99.90
8856;DHT22;4464;50.882;4.730;2023-04-07T12:38:35;11.20;99.90
8856;DHT22;4464;50.882;4.730;2023-04-07T12:41:01;11.10;99.90
8856;DHT22;4464;50.882;4.730;2023-04-07T12:43:31;11.10;99.90
8856;DHT22;4464;50.882;4.730;2023-04-07T12:45:56;11.20;99.90
8856;DHT22;4464;50.882;4.730;2023-04-07T12:48:23;11.20;99.90
8856;DHT22;4464;50.882;4.730;2023-04-07T12:50:49;11.30;99.90
8856;DHT22;4464;50.882;4.730;2023-04-07T12:53:17;11.30;99.90
8856;DHT22;4464;50.882;4.730;2023-04-07T12:55:43;11.40;99.90
8856;DHT22;4464;50.882;4.730;2023-04-07T12:58:11;11.40;99.90
8856;DHT22;4464;50.882;4.730;2023-04-07T13:00:37;11.40;99.90
8856;DHT22;4464;50.882;4.730;2023-04-07T13:03:03;11.40;99.90
8856;DHT22;4464;50.882;4.730;2023-04-07T13:05:29;11.50;99.90
8856;DHT22;4464;50.882;4.730;2023-04-07T13:07:55;11.50;99.90
8856;DHT22;4464;50.882;4.730;2023-04-07T13:10:20;11.50;99.90
8856;DHT22;4464;50.882;4.730;2023-04-07T13:12:48;11.60;99.90
8856;DHT22;4464;50.882;4.730;2023-04-07T13:15:14;11.70;99.90
8856;DHT22;4464;50.882;4.730;2023-04-07T13:17:40;11.70;99.90
8856;DHT22;4464;50.882;4.730;2023-04-07T13:20:07;11.70;99.90
8856;DHT22;4464;50.882;4.730;2023-04-07T13:22:37;11.80;99.90
8856;DHT22;4464;50.882;4.730;2023-04-07T13:25:03;12.00;99.90
8856;DHT22;4464;50.882;4.730;2023-04-07T13:27:32;12.20;99.90
8856;DHT22;4464;50.882;4.730;2023-04-07T13:29:58;12.40;99.90
8856;DHT22;4464;50.882;4.730;2023-04-07T13:32:23;12.40;99.90
8856;DHT22;4464;50.882;4.730;2023-04-07T13:34:51;12.50;99.90
8856;DHT22;4464;50.882;4.730;2023-04-07T13:37:17;12.80;99.90
8856;DHT22;4464;50.882;4.730;2023-04-07T13:39:44;13.10;99.90
8856;DHT22;4464;50.882;4.730;2023-04-07T13:42:10;13.00;99.90
8856;DHT22;4464;50.882;4.730;2023-04-07T13:44:36;12.60;99.90
8856;DHT22;4464;50.882;4.730;2023-04-07T13:47:05;12.40;99.90
8856;DHT22;4464;50.882;4.730;2023-04-07T13:49:37;12.30;99.90
8856;DHT22;4464;50.882;4.730;2023-04-07T13:52:03;12.00;99.90
8856;DHT22;4464;50.882;4.730;2023-04-07T13:54:29;11.80;99.90
8856;DHT22;4464;50.882;4.730;2023-04-07T13:56:54;11.70;99.90
8856;DHT22;4464;50.882;4.730;2023-04-07T13:59:20;11.50;99.90
8856;DHT22;4464;50.882;4.730;2023-04-07T14:01:46;11.40;99.90
8856;DHT22;4464;50.882;4.730;2023-04-07T14:04:11;11.40;99.90
8856;DHT22;4464;50.882;4.730;2023-04-07T14:06:37;11.30;99.90
8856;DHT22;4464;50.882;4.730;2023-04-07T14:09:03;11.30;99.90
8856;DHT22;4464;50.882;4.730;2023-04-07T14:11:31;11.40;99.90
8856;DHT22;4464;50.882;4.730;2023-04-07T14:13:57;11.40;99.90
8856;DHT22;4464;50.882;4.730;2023-04-07T14:16:24;11.50;99.90
8856;DHT22;4464;50.882;4.730;2023-04-07T14:18:49;11.60;99.90
8856;DHT22;4464;50.882;4.730;2023-04-07T14:21:16;11.60;99.90
8856;DHT22;4464;50.882;4.730;2023-04-07T14:23:42;11.50;99.90
8856;DHT22;4464;50.882;4.730;2023-04-07T14:26:11;11.50;99.90
8856;DHT22;4464;50.882;4.730;2023-04-07T14:28:38;11.50;99.90
8856;DHT22;4464;50.882;4.730;2023-04-07T14:31:09;11.40;99.90
8856;DHT22;4464;50.882;4.730;2023-04-07T14:33:36;11.40;99.90
8856;DHT22;4464;50.882;4.730;2023-04-07T14:36:06;11.40;99.90
8856;DHT22;4464;50.882;4.730;2023-04-07T14:38:34;11.40;99.90
8856;DHT22;4464;50.882;4.730;2023-04-07T14:41:02;11.40;99.90
8856;DHT22;4464;50.882;4.730;2023-04-07T14:43:29;11.40;99.90
8856;DHT22;4464;50.882;4.730;2023-04-07T14:45:55;11.50;99.90
8856;DHT22;4464;50.882;4.730;2023-04-07T14:48:22;11.50;99.90
8856;DHT22;4464;50.882;4.730;2023-04-07T14:50:47;11.40;99.90
8856;DHT22;4464;50.882;4.730;2023-04-07T14:53:13;11.30;99.90
8856;DHT22;4464;50.882;4.730;2023-04-07T14:55:40;11.30;99.90
8856;DHT22;4464;50.882;4.730;2023-04-07T14:58:06;11.20;99.90
8856;DHT22;4464;50.882;4.730;2023-04-07T15:00:32;11.30;99.90
8856;DHT22;4464;50.882;4.730;2023-04-07T15:02:58;11.50;99.90
8856;DHT22;4464;50.882;4.730;2023-04-07T15:05:24;11.60;99.90
8856;DHT22;4464;50.882;4.730;2023-04-07T15:07:52;11.60;99.90
8856;DHT22;4464;50.882;4.730;2023-04-07T15:10:18;11.60;99.90
8856;DHT22;4464;50.882;4.730;2023-04-07T15:12:44;12.00;99.90
8856;DHT22;4464;50.882;4.730;2023-04-07T15:15:15;12.40;99.90
8856;DHT22;4464;50.882;4.730;2023-04-07T15:17:41;13.10;99.90
8856;DHT22;4464;50.882;4.730;2023-04-07T15:20:08;13.80;99.90
8856;DHT22;4464;50.882;4.730;2023-04-07T15:22:36;14.70;99.90
8856;DHT22;4464;50.882;4.730;2023-04-07T15:25:06;15.70;99.90
8856;DHT22;4464;50.882;4.730;2023-04-07T15:27:32;16.30;99.90
8856;DHT22;4464;50.882;4.730;2023-04-07T15:29:58;16.20;99.90
8856;DHT22;4464;50.882;4.730;2023-04-07T15:32:25;16.80;99.90
8856;DHT22;4464;50.882;4.730;2023-04-07T15:34:50;16.90;99.90
8856;DHT22;4464;50.882;4.730;2023-04-07T15:37:16;15.80;99.90
8856;DHT22;4464;50.882;4.730;2023-04-07T15:39:48;15.20;99.90
8856;DHT22;4464;50.882;4.730;2023-04-07T15:42:16;14.60;99.90
8856;DHT22;4464;50.882;4.730;2023-04-07T15:44:42;14.60;99.90
8856;DHT22;4464;50.882;4.730;2023-04-07T15:47:07;14.80;99.90
8856;DHT22;4464;50.882;4.730;2023-04-07T15:49:34;14.00;99.90
8856;DHT22;4464;50.882;4.730;2023-04-07T15:52:05;13.80;99.90
8856;DHT22;4464;50.882;4.730;2023-04-07T15:54:31;13.00;99.90
8856;DHT22;4464;50.882;4.730;2023-04-07T15:56:59;12.70;99.90
8856;DHT22;4464;50.882;4.730;2023-04-07T15:59:25;12.80;99.90
8856;DHT22;4464;50.882;4.730;2023-04-07T16:01:53;12.40;99.90
8856;DHT22;4464;50.882;4.730;2023-04-07T16:04:24;12.20;99.90
8856;DHT22;4464;50.882;4.730;2023-04-07T16:06:50;12.10;99.90
8856;DHT22;4464;50.882;4.730;2023-04-07T16:09:16;11.80;99.90
8856;DHT22;4464;50.882;4.730;2023-04-07T16:11:41;11.80;99.90
8856;DHT22;4464;50.882;4.730;2023-04-07T16:14:07;11.90;99.90
8856;DHT22;4464;50.882;4.730;2023-04-07T16:16:33;11.90;99.90
8856;DHT22;4464;50.882;4.730;2023-04-07T16:19:01;11.70;99.90
8856;DHT22;4464;50.882;4.730;2023-04-07T16:21:27;11.60;99.90
8856;DHT22;4464;50.882;4.730;2023-04-07T16:23:52;11.40;99.90
8856;DHT22;4464;50.882;4.730;2023-04-07T16:26:18;11.50;99.90
8856;DHT22;4464;50.882;4.730;2023-04-07T16:28:44;11.50;99.90
8856;DHT22;4464;50.882;4.730;2023-04-07T16:31:09;11.60;99.90